Time;durP1;ratioP1;P1;durP2;ratioP2;P2;SDS_P1;SDS_P2;PMS_P1;PMS_P2;Temp;Humidity;BMP_temperature;BMP_pressure;BME280_temperature;BME280_humidity;BME280_pressure;Samples;Min_cycle;Max_cycle;Signal;HPM_P1;HPM_P2
2022/08/24 00:01:55;;;;;;;3.03;2.72;;;27.50;53.10;28.80;100874.00;;;;5045446;28;20257;-44
2022/08/24 00:04:21;;;;;;;3.28;2.90;;;27.50;53.20;28.80;100874.00;;;;5045932;28;20189;-41
2022/08/24 00:06:48;;;;;;;3.55;3.00;;;27.50;53.30;28.80;100882.00;;;;5045988;28;20170;-44
2022/08/24 00:09:14;;;;;;;4.55;2.60;;;27.40;53.20;28.80;100884.00;;;;5046063;28;20201;-43
2022/08/24 00:11:40;;;;;;;3.80;2.70;;;27.40;53.30;28.80;100879.00;;;;5050968;28;20185;-43
2022/08/24 00:14:06;;;;;;;3.20;2.90;;;27.40;53.20;28.70;100874.00;;;;5066134;28;20162;-41
2022/08/24 00:16:34;;;;;;;3.67;2.80;;;27.40;53.20;28.70;100860.00;;;;5060316;28;20213;-44
2022/08/24 00:19:00;;;;;;;4.10;3.00;;;27.40;53.20;28.70;100873.00;;;;5044572;28;20186;-42
2022/08/24 00:21:25;;;;;;;3.70;2.83;;;27.40;53.20;28.70;100879.00;;;;5045833;28;20652;-44
2022/08/24 00:23:52;;;;;;;3.22;2.90;;;27.40;53.10;28.60;100883.00;;;;5045589;28;20224;-43
2022/08/24 00:26:17;;;;;;;4.80;2.80;;;27.50;53.10;28.60;100886.00;;;;5045516;28;20166;-42
2022/08/24 00:28:43;;;;;;;3.30;3.00;;;27.50;53.10;28.60;100886.00;;;;5045378;28;20186;-42
2022/08/24 00:31:09;;;;;;;3.42;3.10;;;27.40;53.00;28.60;100873.00;;;;5045698;28;20190;-41
2022/08/24 00:33:35;;;;;;;3.67;3.17;;;27.40;53.10;28.60;100881.00;;;;5045609;28;20178;-45
2022/08/24 00:36:01;;;;;;;4.25;2.88;;;27.40;52.90;28.60;100871.00;;;;5045914;28;20166;-45
2022/08/24 00:38:27;;;;;;;3.30;3.00;;;27.40;53.20;28.50;100879.00;;;;5043977;28;20210;-43
2022/08/24 00:40:53;;;;;;;3.55;2.92;;;27.30;53.10;28.50;100887.00;;;;5045279;28;20179;-42
2022/08/24 00:43:24;;;;;;;3.30;3.00;;;27.30;53.00;28.50;100890.00;;;;5045609;28;20171;-41
2022/08/24 00:46:10;;;;;;;4.38;3.05;;;27.30;53.30;28.50;100886.00;;;;5045831;28;20162;-41
2022/08/24 00:48:39;;;;;;;5.45;3.00;;;27.30;53.20;28.40;100873.00;;;;5045389;28;20751;-41
2022/08/24 00:51:19;;;;;;;4.97;3.03;;;27.30;53.20;28.40;100884.00;;;;5044359;28;20230;-44
2022/08/24 00:53:50;;;;;;;4.72;2.75;;;27.30;53.10;28.40;100887.00;;;;5049233;28;20250;-44
2022/08/24 00:56:21;;;;;;;3.53;2.90;;;27.30;53.00;28.40;100883.00;;;;5048412;28;20854;-43
2022/08/24 00:59:00;;;;;;;4.07;3.00;;;27.20;53.10;28.30;100890.00;;;;5048094;28;20242;-40
2022/08/24 01:01:26;;;;;;;3.65;2.70;;;27.30;53.40;28.30;100893.00;;;;5048657;28;20326;-42
2022/08/24 01:03:52;;;;;;;7.07;3.20;;;27.30;53.30;28.30;100895.00;;;;5048064;28;20261;-44
2022/08/24 01:06:17;;;;;;;4.57;3.00;;;27.30;53.50;28.30;100893.00;;;;5048237;28;20249;-45
2022/08/24 01:08:44;;;;;;;6.57;3.15;;;27.20;53.60;28.30;100887.00;;;;5048766;28;20575;-43
2022/08/24 01:11:14;;;;;;;4.93;2.92;;;27.30;53.90;28.30;100889.00;;;;5049362;28;20187;-43
2022/08/24 01:13:42;;;;;;;3.83;2.97;;;27.20;53.70;28.20;100880.00;;;;5048034;28;20171;-43
2022/08/24 01:16:08;;;;;;;6.20;2.90;;;27.20;53.50;28.20;100893.00;;;;5065575;28;20178;-44
2022/08/24 01:18:49;;;;;;;3.28;2.97;;;27.20;53.50;28.20;100891.00;;;;5063132;28;20200;-42
2022/08/24 01:21:30;;;;;;;3.38;3.08;;;27.20;53.40;28.20;100889.00;;;;5049229;28;20208;-43
2022/08/24 01:23:59;;;;;;;3.40;3.05;;;27.20;53.20;28.20;100891.00;;;;5049545;28;20631;-44
2022/08/24 01:26:31;;;;;;;3.40;3.00;;;27.20;53.20;28.10;100902.00;;;;5047381;28;20521;-43
2022/08/24 01:29:03;;;;;;;3.78;3.00;;;27.20;53.30;28.10;100895.00;;;;5047154;28;20225;-44
2022/08/24 01:31:29;;;;;;;3.40;2.60;;;27.20;53.30;28.10;100898.00;;;;5048591;28;20166;-44
2022/08/24 01:33:54;;;;;;;4.85;2.92;;;27.20;53.20;28.10;100892.00;;;;5048454;28;20171;-43
2022/08/24 01:36:44;;;;;;;5.45;2.88;;;27.20;53.20;28.10;100900.00;;;;5048646;28;20171;-42
2022/08/24 01:39:20;;;;;;;4.10;3.00;;;27.20;53.20;28.00;100896.00;;;;5047301;28;20558;-43
2022/08/24 01:41:46;;;;;;;7.05;3.05;;;27.20;53.20;28.00;100897.00;;;;5050077;28;20791;-42
2022/08/24 01:44:12;;;;;;;4.63;3.13;;;27.10;53.30;28.00;100900.00;;;;5053653;28;20814;-44
2022/08/24 01:46:43;;;;;;;11.15;3.63;;;27.10;53.40;28.00;100904.00;;;;5053007;28;20180;-44
2022/08/24 01:49:09;;;;;;;6.25;3.00;;;27.00;53.50;28.00;100900.00;;;;5052186;28;20791;-43
2022/08/24 01:51:35;;;;;;;6.03;2.80;;;27.00;53.80;27.90;100891.00;;;;5048159;28;20174;-44
2022/08/24 01:54:01;;;;;;;7.50;3.03;;;27.00;53.70;27.90;100901.00;;;;5048395;28;20190;-42
2022/08/24 01:56:29;;;;;;;4.60;3.17;;;26.90;53.80;27.90;100892.00;;;;5048183;28;20162;-43
2022/08/24 01:58:55;;;;;;;3.50;2.88;;;26.90;53.60;27.90;100889.00;;;;5047976;28;20195;-45
2022/08/24 02:01:21;;;;;;;4.57;3.20;;;26.90;53.60;27.90;100891.00;;;;5048152;28;20251;-44
2022/08/24 02:03:47;;;;;;;3.28;2.70;;;26.90;53.40;27.70;100892.00;;;;5046352;28;20759;-43
2022/08/24 02:06:14;;;;;;;3.72;2.97;;;27.00;53.30;27.80;100897.00;;;;5047950;28;20819;-43
2022/08/24 02:08:40;;;;;;;4.47;2.88;;;27.00;53.30;27.80;100903.00;;;;5047185;28;20886;-43
2022/08/24 02:11:07;;;;;;;3.45;3.00;;;27.00;53.30;27.80;100893.00;;;;5047942;28;20195;-45
2022/08/24 02:13:34;;;;;;;3.33;3.05;;;27.00;53.30;27.80;100898.00;;;;5048102;28;20178;-43
2022/08/24 02:16:00;;;;;;;4.70;3.40;;;27.00;53.30;27.80;100898.00;;;;5047012;28;20188;-42
2022/08/24 02:18:26;;;;;;;3.20;2.90;;;26.90;53.30;27.80;100904.00;;;;5047553;28;20186;-44
2022/08/24 02:20:52;;;;;;;3.17;2.90;;;26.90;53.30;27.70;100898.00;;;;5047879;28;20714;-41
2022/08/24 02:23:19;;;;;;;3.28;2.95;;;26.90;53.40;27.70;100908.00;;;;5048141;28;20300;-43
2022/08/24 02:25:45;;;;;;;3.35;3.05;;;26.90;53.40;27.70;100908.00;;;;5046381;28;20968;-42
2022/08/24 02:28:11;;;;;;;3.15;2.85;;;26.90;53.30;27.70;100910.00;;;;5047222;28;20201;-43
2022/08/24 02:30:37;;;;;;;3.72;3.20;;;26.90;53.50;27.70;100909.00;;;;5047432;28;20186;-42
2022/08/24 02:33:03;;;;;;;3.92;3.17;;;26.90;53.40;27.70;100903.00;;;;5047438;28;20534;-42
2022/08/24 02:35:29;;;;;;;4.03;3.10;;;26.90;53.50;27.70;100911.00;;;;5047115;28;20171;-45
2022/08/24 02:37:55;;;;;;;4.43;3.10;;;26.90;53.50;27.60;100910.00;;;;5047613;28;20658;-44
2022/08/24 02:40:20;;;;;;;3.20;2.90;;;26.90;53.50;27.60;100911.00;;;;5048121;28;20204;-44
2022/08/24 02:42:46;;;;;;;3.17;2.88;;;26.90;53.50;27.60;100911.00;;;;5047321;28;20261;-42
2022/08/24 02:45:12;;;;;;;3.38;3.00;;;26.80;53.50;27.60;100915.00;;;;5047200;28;20200;-44
2022/08/24 02:47:38;;;;;;;3.17;2.80;;;26.80;53.70;27.60;100905.00;;;;5046867;28;20201;-44
2022/08/24 02:50:06;;;;;;;3.25;2.90;;;26.80;53.70;27.60;100910.00;;;;5047035;28;20204;-45
2022/08/24 02:52:32;;;;;;;3.35;2.90;;;26.80;53.60;27.50;100907.00;;;;5047318;28;20174;-43
2022/08/24 02:54:58;;;;;;;5.20;3.10;;;26.80;53.60;27.50;100910.00;;;;5047599;28;20602;-43
2022/08/24 02:57:23;;;;;;;3.30;3.00;;;26.70;53.60;27.50;100911.00;;;;5046903;28;20727;-43
2022/08/24 02:59:49;;;;;;;3.30;2.72;;;26.70;53.60;27.50;100912.00;;;;5047738;28;20218;-43
2022/08/24 03:02:15;;;;;;;3.35;3.00;;;26.70;53.60;27.50;100915.00;;;;5046172;28;20193;-43
2022/08/24 03:04:41;;;;;;;3.72;3.08;;;26.70;53.60;27.50;100912.00;;;;5047182;28;20657;-42
2022/08/24 03:07:06;;;;;;;4.22;3.30;;;26.60;53.50;27.40;100921.00;;;;5047280;28;20202;-44
2022/08/24 03:09:32;;;;;;;3.78;3.20;;;26.50;53.70;27.40;100921.00;;;;5046951;28;20210;-43
2022/08/24 03:11:58;;;;;;;3.78;2.88;;;26.60;53.70;27.40;100910.00;;;;5047178;28;20175;-43
2022/08/24 03:14:24;;;;;;;5.40;3.00;;;26.60;53.70;27.40;100914.00;;;;5046255;28;20216;-43
2022/08/24 03:16:50;;;;;;;3.33;3.00;;;26.60;53.60;27.40;100913.00;;;;5046814;28;20271;-43
2022/08/24 03:19:15;;;;;;;5.78;3.17;;;26.60;53.60;27.40;100923.00;;;;5047302;28;20413;-44
2022/08/24 03:21:41;;;;;;;4.72;2.92;;;26.60;53.60;27.30;100921.00;;;;5046995;28;20261;-43
2022/08/24 03:24:07;;;;;;;3.50;3.03;;;26.60;53.60;27.30;100920.00;;;;5047092;28;20209;-44
2022/08/24 03:26:33;;;;;;;3.00;2.70;;;26.60;53.60;27.30;100918.00;;;;5047105;28;20197;-43
2022/08/24 03:28:58;;;;;;;3.35;2.95;;;26.50;53.90;27.30;100909.00;;;;5046649;28;20193;-42
2022/08/24 03:31:24;;;;;;;5.90;3.10;;;26.50;53.70;27.30;100911.00;;;;5047534;28;20312;-41
2022/08/24 03:33:50;;;;;;;6.70;3.10;;;26.50;53.70;27.20;100907.00;;;;5047056;28;20174;-45
2022/08/24 03:36:16;;;;;;;4.72;2.90;;;26.50;53.60;27.20;100911.00;;;;5046963;28;20182;-41
2022/08/24 03:38:42;;;;;;;3.28;2.97;;;26.50;53.60;27.20;100909.00;;;;5046761;28;20190;-43
2022/08/24 03:41:08;;;;;;;3.25;2.95;;;26.50;53.60;27.20;100907.00;;;;5049141;28;20170;-43
2022/08/24 03:43:47;;;;;;;3.63;2.80;;;26.50;53.70;27.20;100907.00;;;;5051090;28;20216;-44
2022/08/24 03:46:19;;;;;;;4.10;3.20;;;26.40;53.60;27.20;100901.00;;;;5047904;28;20786;-43
2022/08/24 03:48:45;;;;;;;3.15;2.92;;;26.40;53.50;27.20;100908.00;;;;5046341;28;20198;-43
2022/08/24 03:51:16;;;;;;;3.55;3.25;;;26.40;53.50;27.10;100910.00;;;;5046685;28;20233;-43
2022/08/24 03:53:42;;;;;;;3.72;3.22;;;26.40;53.60;27.10;100909.00;;;;5047030;28;20186;-44
2022/08/24 03:56:08;;;;;;;3.72;3.15;;;26.40;53.60;27.10;100903.00;;;;5047512;28;20517;-43
2022/08/24 03:58:35;;;;;;;3.22;2.92;;;26.30;53.50;27.10;100906.00;;;;5047552;28;20186;-44
2022/08/24 04:01:02;;;;;;;5.05;3.28;;;26.40;53.50;27.10;100907.00;;;;5047716;28;20224;-43
2022/08/24 04:03:28;;;;;;;3.47;3.10;;;26.30;53.70;27.10;100912.00;;;;5054916;28;20829;-42
2022/08/24 04:05:54;;;;;;;4.10;3.40;;;26.30;53.70;27.00;100916.00;;;;5046415;28;20171;-42
2022/08/24 04:08:19;;;;;;;3.95;3.30;;;26.30;53.70;27.00;100911.00;;;;5044109;28;20633;-42
2022/08/24 04:10:46;;;;;;;3.90;3.25;;;26.20;53.60;27.00;100918.00;;;;5046099;28;20812;-43
2022/08/24 04:13:12;;;;;;;3.47;3.17;;;26.20;53.60;27.00;100912.00;;;;5045331;28;20705;-42
2022/08/24 04:15:41;;;;;;;3.47;3.10;;;26.20;53.60;27.00;100909.00;;;;5046156;28;20170;-42
2022/08/24 04:18:07;;;;;;;4.18;3.13;;;26.20;53.60;26.90;100911.00;;;;5045584;28;20201;-42
2022/08/24 04:20:40;;;;;;;4.18;3.05;;;26.20;53.60;26.90;100909.00;;;;5046493;28;20171;-43
2022/08/24 04:23:06;;;;;;;6.13;3.15;;;26.20;53.60;26.90;100908.00;;;;5044931;28;20181;-42
2022/08/24 04:25:43;;;;;;;3.40;3.10;;;26.20;53.70;26.90;100914.00;;;;5046653;28;20182;-43
2022/08/24 04:28:09;;;;;;;3.42;3.13;;;26.20;53.70;26.90;100903.00;;;;5049662;28;20194;-44
2022/08/24 04:30:38;;;;;;;3.78;3.40;;;26.10;53.70;26.90;100918.00;;;;5048713;28;20198;-45
2022/08/24 04:33:05;;;;;;;3.38;3.08;;;26.10;53.80;26.90;100916.00;;;;5048523;28;20170;-44
2022/08/24 04:35:31;;;;;;;3.65;3.10;;;26.10;53.80;26.80;100914.00;;;;5049882;28;20182;-45
2022/08/24 04:37:56;;;;;;;3.88;3.05;;;26.10;53.80;26.80;100918.00;;;;5049926;28;20231;-42
2022/08/24 04:40:23;;;;;;;3.58;3.28;;;26.00;53.90;26.80;100922.00;;;;5049876;28;20198;-42
2022/08/24 04:42:49;;;;;;;3.95;3.00;;;26.10;53.90;26.80;100920.00;;;;5049348;28;20175;-42
2022/08/24 04:45:15;;;;;;;4.07;3.20;;;26.00;53.70;26.80;100928.00;;;;5049398;28;20655;-43
2022/08/24 04:47:44;;;;;;;3.97;3.10;;;26.00;53.70;26.70;100910.00;;;;5049537;28;20231;-43
2022/08/24 04:50:10;;;;;;;3.40;3.10;;;26.00;53.80;26.70;100918.00;;;;5049540;28;20198;-43
2022/08/24 04:52:36;;;;;;;4.82;3.42;;;26.00;53.90;26.70;100923.00;;;;5049316;28;20239;-44
2022/08/24 04:55:02;;;;;;;4.00;3.60;;;26.00;53.90;26.70;100929.00;;;;5049322;28;20170;-43
2022/08/24 04:57:27;;;;;;;3.45;3.15;;;25.90;53.90;26.70;100921.00;;;;5049364;28;20902;-44
2022/08/24 04:59:57;;;;;;;3.50;2.97;;;25.90;53.90;26.70;100921.00;;;;5049160;28;20257;-43
2022/08/24 05:02:23;;;;;;;5.45;2.97;;;25.90;53.70;26.60;100926.00;;;;5050432;28;20159;-43
2022/08/24 05:04:49;;;;;;;3.60;3.17;;;25.90;53.70;26.60;100925.00;;;;5048882;28;20170;-43
2022/08/24 05:07:14;;;;;;;4.20;3.25;;;25.90;53.80;26.60;100927.00;;;;5049306;28;20291;-43
2022/08/24 05:09:40;;;;;;;3.42;3.13;;;25.80;53.90;26.60;100930.00;;;;5048943;28;20710;-42
2022/08/24 05:12:08;;;;;;;6.07;3.50;;;25.80;54.00;26.60;100930.00;;;;5050883;28;20581;-42
2022/08/24 05:14:34;;;;;;;3.55;3.20;;;25.80;54.00;26.60;100930.00;;;;5058391;28;20653;-43
2022/08/24 05:16:59;;;;;;;3.55;3.25;;;25.80;54.10;26.60;100935.00;;;;5054641;28;20816;-41
2022/08/24 05:19:25;;;;;;;3.90;3.22;;;25.70;54.10;26.50;100936.00;;;;5049978;28;20222;-42
2022/08/24 05:21:51;;;;;;;4.25;3.10;;;25.70;54.10;26.50;100948.00;;;;5058104;28;20171;-44
2022/08/24 05:24:18;;;;;;;3.55;3.10;;;25.70;54.10;26.50;100948.00;;;;5054253;28;20179;-43
2022/08/24 05:26:44;;;;;;;5.32;3.42;;;25.70;54.10;26.50;100952.00;;;;5049269;28;20163;-42
2022/08/24 05:29:10;;;;;;;4.35;3.42;;;25.70;54.10;26.50;100950.00;;;;5049842;28;20235;-41
2022/08/24 05:31:35;;;;;;;4.18;3.00;;;25.70;54.10;26.50;100953.00;;;;5049045;28;20651;-43
2022/08/24 05:34:01;;;;;;;3.95;3.00;;;25.60;54.00;26.40;100958.00;;;;5048391;28;20170;-42
2022/08/24 05:36:33;;;;;;;3.83;3.22;;;25.70;54.00;26.40;100958.00;;;;5049046;28;20253;-41
2022/08/24 05:39:02;;;;;;;3.17;2.88;;;25.60;54.10;26.40;100959.00;;;;5048111;28;20218;-40
2022/08/24 05:41:28;;;;;;;3.35;3.08;;;25.70;53.90;26.40;100959.00;;;;5049131;28;20193;-41
2022/08/24 05:43:54;;;;;;;6.68;6.07;;;25.60;53.90;26.40;100961.00;;;;5047246;28;20170;-43
2022/08/24 05:46:20;;;;;;;5.47;4.97;;;25.60;54.00;26.40;100966.00;;;;5048658;28;20220;-41
2022/08/24 05:48:46;;;;;;;5.93;3.92;;;25.60;54.60;26.40;100960.00;;;;5048291;28;20281;-42
2022/08/24 05:51:12;;;;;;;3.85;3.55;;;25.60;54.40;26.40;100965.00;;;;5048454;28;20284;-42
2022/08/24 05:53:38;;;;;;;3.88;3.58;;;25.60;54.50;26.40;100969.00;;;;5048227;28;20170;-42
2022/08/24 05:56:09;;;;;;;4.30;3.90;;;25.60;54.70;26.40;100957.00;;;;5048310;28;20216;-42
2022/08/24 05:58:36;;;;;;;3.92;3.58;;;25.60;54.70;26.30;100960.00;;;;5047101;28;20636;-41
2022/08/24 06:01:19;;;;;;;3.67;3.30;;;25.60;54.70;26.30;100964.00;;;;5048061;28;20795;-42
2022/08/24 06:03:46;;;;;;;4.60;3.42;;;25.60;54.30;26.30;100956.00;;;;5048513;28;20220;-42
2022/08/24 06:06:13;;;;;;;5.30;3.70;;;25.60;54.20;26.30;100977.00;;;;5048310;28;20170;-42
2022/08/24 06:08:41;;;;;;;5.35;3.70;;;25.50;54.30;26.30;100973.00;;;;5047901;28;20355;-42
2022/08/24 06:11:06;;;;;;;5.55;3.70;;;25.60;54.70;26.30;100969.00;;;;5048390;28;20186;-45
2022/08/24 06:13:32;;;;;;;3.75;3.35;;;25.50;54.60;26.30;100982.00;;;;5047261;28;20533;-43
2022/08/24 06:16:12;;;;;;;4.32;3.42;;;25.50;54.60;26.30;100978.00;;;;5047548;28;20178;-44
2022/08/24 06:18:38;;;;;;;3.67;3.38;;;25.60;54.30;26.30;100985.00;;;;5047153;28;20186;-42
2022/08/24 06:21:11;;;;;;;3.67;3.38;;;25.50;55.20;26.30;100981.00;;;;5047924;28;20249;-43
2022/08/24 06:23:37;;;;;;;3.88;3.40;;;25.50;54.60;26.20;100975.00;;;;5047194;28;20781;-44
2022/08/24 06:28:48;;;;;;;3.20;2.90;;;25.50;54.30;26.20;100986.00;;;;5046845;28;20263;-41
2022/08/24 06:31:14;;;;;;;3.88;3.17;;;25.50;54.30;26.20;100984.00;;;;5047746;28;20832;-44
2022/08/24 06:33:39;;;;;;;3.38;2.95;;;25.50;54.60;26.20;100979.00;;;;5046836;28;20225;-44
2022/08/24 06:36:05;;;;;;;3.55;3.20;;;25.50;54.30;26.20;100975.00;;;;5047404;28;20174;-44
2022/08/24 06:38:31;;;;;;;3.83;3.10;;;25.50;54.20;26.20;100985.00;;;;5046626;28;20821;-44
2022/08/24 06:40:57;;;;;;;3.53;2.90;;;25.50;54.10;26.20;100996.00;;;;5047277;28;20184;-46
2022/08/24 06:43:23;;;;;;;3.92;3.33;;;25.50;54.10;26.20;100999.00;;;;5046862;28;20185;-44
2022/08/24 06:45:49;;;;;;;3.50;3.20;;;25.40;54.10;26.20;100993.00;;;;5047387;28;20226;-42
2022/08/24 06:48:15;;;;;;;4.75;3.10;;;25.40;54.40;26.10;100994.00;;;;5046731;28;20186;-44
2022/08/24 06:50:41;;;;;;;3.58;3.00;;;25.40;54.50;26.10;100996.00;;;;5045798;28;20247;-44
2022/08/24 06:53:07;;;;;;;3.65;3.35;;;25.30;54.30;26.10;100997.00;;;;5045236;28;20178;-43
2022/08/24 06:55:33;;;;;;;3.28;2.97;;;25.40;54.40;26.10;100989.00;;;;5046010;28;20205;-44
2022/08/24 06:57:58;;;;;;;3.20;2.95;;;25.40;54.20;26.10;100987.00;;;;5045908;28;20192;-43
2022/08/24 07:00:24;;;;;;;3.20;2.90;;;25.40;54.10;26.00;100989.00;;;;5003299;28;20265;-43
2022/08/24 07:02:50;;;;;;;3.03;2.83;;;25.40;54.00;26.00;100996.00;;;;5060868;28;20303;-43
2022/08/24 07:05:17;;;;;;;3.10;2.90;;;25.40;53.90;26.00;100994.00;;;;5068102;28;20363;-42
2022/08/24 07:07:42;;;;;;;4.38;3.20;;;25.30;54.00;26.00;100990.00;;;;5068513;28;20170;-43
2022/08/24 07:10:09;;;;;;;4.57;3.20;;;25.30;53.70;26.00;100989.00;;;;5066080;28;20204;-43
2022/08/24 07:12:36;;;;;;;3.80;3.30;;;25.30;53.90;26.00;100995.00;;;;5066768;28;20170;-41
2022/08/24 07:15:03;;;;;;;2.90;2.70;;;25.30;53.90;26.00;100995.00;;;;5086389;28;20263;-42
2022/08/24 07:17:29;;;;;;;4.20;3.13;;;25.30;53.70;25.90;101005.00;;;;5066389;28;20200;-43
2022/08/24 07:19:55;;;;;;;3.45;3.15;;;25.30;53.90;25.90;101003.00;;;;5066547;28;20291;-43
2022/08/24 07:22:20;;;;;;;3.63;3.03;;;25.20;53.70;25.90;101001.00;;;;5066298;28;20181;-44
2022/08/24 07:24:46;;;;;;;3.50;3.20;;;25.30;53.20;25.90;101006.00;;;;5066110;28;20264;-43
2022/08/24 07:27:13;;;;;;;3.40;3.10;;;25.30;53.10;25.90;101004.00;;;;5065746;28;20205;-43
2022/08/24 07:29:40;;;;;;;3.58;2.83;;;25.20;52.80;25.90;101008.00;;;;5066290;28;20210;-43
2022/08/24 07:32:05;;;;;;;3.88;3.00;;;25.20;53.00;25.90;101006.00;;;;5065846;28;20228;-44
2022/08/24 07:34:32;;;;;;;3.10;2.85;;;25.20;53.70;25.90;101007.00;;;;5065934;28;20174;-44
2022/08/24 07:36:59;;;;;;;3.50;3.17;;;25.30;53.10;25.90;101015.00;;;;5064821;28;20226;-44
2022/08/24 07:39:26;;;;;;;4.28;3.10;;;25.30;53.20;25.90;101013.00;;;;5069931;28;20754;-46
2022/08/24 07:41:52;;;;;;;3.83;2.90;;;25.20;52.90;25.90;101007.00;;;;5086183;28;20668;-44
2022/08/24 07:44:17;;;;;;;3.20;2.85;;;25.20;52.70;25.90;101019.00;;;;5086232;28;20191;-44
2022/08/24 07:46:43;;;;;;;3.33;2.95;;;25.30;53.00;25.90;101011.00;;;;5085997;28;20169;-43
2022/08/24 07:49:10;;;;;;;3.40;3.10;;;25.30;52.80;25.90;101018.00;;;;5085877;28;20204;-42
2022/08/24 07:51:36;;;;;;;4.20;3.33;;;25.30;52.80;25.90;101022.00;;;;5085883;28;20192;-43
2022/08/24 07:54:03;;;;;;;3.90;3.00;;;25.30;52.80;25.90;101017.00;;;;5086257;28;20176;-43
2022/08/24 07:56:30;;;;;;;4.90;2.90;;;25.30;52.60;25.90;101013.00;;;;5068009;28;20771;-42
2022/08/24 07:58:56;;;;;;;5.07;3.17;;;25.40;52.60;25.90;101020.00;;;;5082488;28;20246;-43
2022/08/24 08:01:22;;;;;;;4.88;3.25;;;25.40;52.30;25.90;101016.00;;;;5020482;28;20411;-43
2022/08/24 08:03:49;;;;;;;3.55;2.97;;;25.40;52.10;25.90;101016.00;;;;5085857;28;20175;-42
2022/08/24 08:06:15;;;;;;;3.83;3.00;;;25.40;52.20;25.90;101018.00;;;;5085639;28;20561;-44
2022/08/24 08:08:41;;;;;;;4.70;3.08;;;25.40;52.20;25.90;101022.00;;;;5084413;28;20212;-43
2022/08/24 08:11:09;;;;;;;4.97;3.20;;;25.40;52.30;25.90;101022.00;;;;5086046;28;20294;-45
2022/08/24 08:13:35;;;;;;;3.78;3.08;;;25.40;52.10;26.00;101021.00;;;;5085960;28;20244;-42
2022/08/24 08:16:02;;;;;;;3.45;3.15;;;25.50;52.00;26.00;101033.00;;;;5085465;28;20149;-43
2022/08/24 08:18:29;;;;;;;4.72;3.40;;;25.40;52.00;26.00;101032.00;;;;5077731;28;20239;-42
2022/08/24 08:20:54;;;;;;;4.57;3.28;;;25.50;51.70;26.00;101033.00;;;;5064097;28;20199;-43
2022/08/24 08:26:06;;;;;;;3.78;3.05;;;25.50;51.80;26.00;101039.00;;;;5065597;28;20262;-42
2022/08/24 08:28:32;;;;;;;3.45;3.13;;;25.50;52.30;26.00;101028.00;;;;5064732;28;20349;-44
2022/08/24 08:31:01;;;;;;;4.88;3.30;;;25.50;52.00;26.00;101036.00;;;;5064590;28;20189;-42
2022/08/24 08:33:26;;;;;;;4.47;3.08;;;25.50;51.90;26.00;101036.00;;;;5065468;28;20173;-42
2022/08/24 08:35:57;;;;;;;4.75;3.10;;;25.50;51.80;26.00;101032.00;;;;5065388;28;20193;-44
2022/08/24 08:38:23;;;;;;;3.72;3.42;;;25.50;51.70;26.00;101032.00;;;;5048159;28;20546;-41
2022/08/24 08:41:20;;;;;;;3.33;3.00;;;25.50;51.70;26.00;101027.00;;;;5065579;28;20173;-43
2022/08/24 08:44:05;;;;;;;4.90;3.30;;;25.50;51.70;26.00;101034.00;;;;5065767;28;20162;-42
2022/08/24 08:46:49;;;;;;;4.90;3.20;;;25.50;51.20;26.00;101026.00;;;;5050370;28;20674;-42
2022/08/24 08:49:33;;;;;;;3.15;2.95;;;25.50;51.10;26.10;101031.00;;;;5065257;28;20202;-42
2022/08/24 08:52:36;;;;;;;5.03;3.15;;;25.50;51.60;26.10;101027.00;;;;5057211;28;20154;-42
2022/08/24 08:55:18;;;;;;;3.58;3.20;;;25.60;51.40;26.10;101037.00;;;;5076064;28;20160;-44
2022/08/24 08:57:54;;;;;;;4.20;3.22;;;25.50;51.10;26.10;101033.00;;;;5072397;28;20714;-43
2022/08/24 09:00:24;;;;;;;5.03;3.05;;;25.60;51.00;26.10;101030.00;;;;5064538;28;20243;-41
2022/08/24 09:03:33;;;;;;;5.55;3.10;;;25.60;51.20;26.10;101029.00;;;;5064029;28;20201;-43
2022/08/24 09:06:36;;;;;;;3.67;3.08;;;25.60;51.40;26.10;101030.00;;;;4999687;28;20245;-42
2022/08/24 09:09:34;;;;;;;5.22;3.40;;;25.70;51.60;26.10;101030.00;;;;5034429;28;20588;-42
2022/08/24 09:12:35;;;;;;;4.25;3.22;;;25.70;51.40;26.10;101030.00;;;;5066893;28;20176;-41
2022/08/24 09:15:35;;;;;;;4.85;3.60;;;25.70;51.80;26.20;101020.00;;;;5063364;28;20630;-42
2022/08/24 09:18:23;;;;;;;3.63;3.10;;;25.80;51.50;26.20;101023.00;;;;5051909;28;20193;-42
2022/08/24 09:21:06;;;;;;;3.95;3.40;;;25.80;51.60;26.20;101024.00;;;;5068715;28;20508;-43
2022/08/24 09:23:53;;;;;;;5.50;3.50;;;25.80;52.00;26.20;101022.00;;;;5067467;28;20169;-43
2022/08/24 09:26:37;;;;;;;4.28;3.65;;;25.80;51.80;26.30;101017.00;;;;4918504;28;20197;-43
2022/08/24 09:29:17;;;;;;;4.47;3.45;;;25.90;51.20;26.30;101019.00;;;;5068016;28;20242;-43
2022/08/24 09:32:16;;;;;;;5.80;3.80;;;25.90;51.70;26.30;101016.00;;;;5067006;28;20173;-42
2022/08/24 09:35:16;;;;;;;6.63;3.58;;;25.90;50.80;26.40;101007.00;;;;5067031;28;20188;-42
2022/08/24 09:38:05;;;;;;;6.40;3.80;;;26.00;51.60;26.40;101002.00;;;;5049918;28;20157;-45
2022/08/24 09:40:54;;;;;;;7.35;3.60;;;25.90;50.90;26.40;101009.00;;;;5065456;28;20178;-42
2022/08/24 09:43:43;;;;;;;7.78;3.65;;;26.00;51.00;26.40;101015.00;;;;5066402;28;20170;-44
2022/08/24 09:46:12;;;;;;;4.68;3.30;;;26.00;52.70;26.40;101010.00;;;;5066593;28;20158;-42
2022/08/24 09:49:01;;;;;;;5.78;3.83;;;26.10;52.80;26.50;101007.00;;;;5066964;28;20693;-43
2022/08/24 09:52:08;;;;;;;6.78;3.47;;;26.10;52.30;26.50;101007.00;;;;5067350;28;20204;-43
2022/08/24 09:54:52;;;;;;;7.20;3.40;;;26.10;52.90;26.50;101007.00;;;;5030163;28;20208;-43
2022/08/24 09:57:45;;;;;;;5.00;3.60;;;26.20;50.70;26.60;101008.00;;;;5047492;28;20455;-43
2022/08/24 10:00:13;;;;;;;4.40;3.40;;;26.20;50.10;26.60;101002.00;;;;5057540;28;20307;-42
2022/08/24 10:03:10;;;;;;;5.22;3.53;;;26.30;50.80;26.70;101002.00;;;;5066209;28;20191;-46
2022/08/24 10:06:05;;;;;;;5.47;3.30;;;26.30;51.70;26.70;100992.00;;;;5066166;28;20268;-43
2022/08/24 10:08:50;;;;;;;4.00;3.40;;;26.30;50.10;26.80;100985.00;;;;5062418;28;20212;-43
2022/08/24 10:11:40;;;;;;;4.78;3.50;;;26.40;51.30;26.80;100982.00;;;;5067444;28;20223;-43
2022/08/24 10:14:24;;;;;;;3.53;3.22;;;26.40;50.70;26.80;100981.00;;;;5066442;28;20177;-43
2022/08/24 10:17:11;;;;;;;5.35;3.40;;;26.30;50.70;26.80;100980.00;;;;5051524;28;20241;-43
2022/08/24 10:19:48;;;;;;;3.40;3.10;;;26.40;51.10;26.90;100978.00;;;;5066312;28;20243;-44
2022/08/24 10:22:54;;;;;;;5.88;3.97;;;26.50;49.30;26.90;100971.00;;;;5066780;28;20177;-45
2022/08/24 10:25:36;;;;;;;3.58;3.25;;;26.60;49.00;27.00;100979.00;;;;4912044;28;20173;-43
2022/08/24 10:28:45;;;;;;;3.78;3.35;;;26.60;49.20;27.00;100971.00;;;;5087508;28;20695;-42
2022/08/24 10:31:37;;;;;;;3.60;3.30;;;26.70;48.30;27.00;100974.00;;;;5086636;28;20200;-44
2022/08/24 10:34:47;;;;;;;5.45;3.78;;;26.70;48.30;27.10;100976.00;;;;5073259;28;20521;-44
2022/08/24 10:37:47;;;;;;;7.75;3.72;;;26.70;48.70;27.20;100973.00;;;;5067024;28;20170;-44
2022/08/24 10:41:01;;;;;;;3.70;3.40;;;26.80;49.50;27.20;100968.00;;;;5066210;28;20211;-43
2022/08/24 10:43:52;;;;;;;7.38;3.63;;;26.80;50.80;27.20;100964.00;;;;5017744;28;20549;-44
2022/08/24 10:46:47;;;;;;;4.28;3.65;;;26.70;51.80;27.20;100967.00;;;;5045471;28;20190;-45
2022/08/24 10:49:33;;;;;;;3.60;3.30;;;26.70;52.60;27.20;100965.00;;;;5046731;28;20247;-45
2022/08/24 10:52:24;;;;;;;4.97;3.45;;;26.70;53.20;27.10;100962.00;;;;5046871;28;20165;-45
2022/08/24 10:54:50;;;;;;;5.72;3.40;;;26.70;53.30;27.20;100962.00;;;;5048772;28;20217;-45
2022/08/24 10:57:43;;;;;;;3.88;3.45;;;26.70;53.50;27.30;100961.00;;;;5048383;28;20562;-45
2022/08/24 11:00:16;;;;;;;5.20;3.65;;;26.80;54.00;27.30;100965.00;;;;5047251;28;20178;-43
2022/08/24 11:02:44;;;;;;;4.60;3.30;;;26.80;54.20;27.30;100960.00;;;;5064536;28;20174;-44
2022/08/24 11:05:41;;;;;;;3.60;3.30;;;26.80;54.40;27.40;100962.00;;;;5085826;28;20172;-44
2022/08/24 11:08:07;;;;;;;5.55;3.47;;;26.80;54.40;27.40;100950.00;;;;5076744;28;20238;-44
2022/08/24 11:10:36;;;;;;;5.50;3.50;;;26.80;54.60;27.40;100948.00;;;;5085155;28;20247;-45
2022/08/24 11:13:24;;;;;;;7.57;3.50;;;26.90;55.00;27.40;100954.00;;;;5085128;28;20200;-46